ASN logo
ASN Wikibase Occurrence # 163201
Last updated: 12 October 2019
This information is added by users of ASN. Neither ASN nor the Flight Safety Foundation are responsible for the completeness or correctness of this information. If you feel this information is incomplete or incorrect, you can submit corrected information.

Date:10-JAN-2014
Time:c. 17:07
Type:Silhouette image of generic SW4 model; specific model in this crash may look slightly different
Swearingen SA227-AC Metro
Owner/operator:Carson Air
Registration: C-FJKK
C/n / msn: AC 713B
Fatalities:Fatalities: 0 / Occupants: 2
Other fatalities:0
Aircraft damage: Unknown
Location:Regina Airport, SK (YQR/CYQR) -   Canada
Phase: Landing
Nature:Cargo
Departure airport:Saskatoon Airport, SK (YXE/CYXE)
Destination airport:Regina Airport, SK (YQR/CYQR)
Narrative:
A Metroliner cargo plane slid off the runway at Regina, Canada. It ended up approximately 300 feet off runway 13, according to an airport spokesman.

Weather reported at the accident time (17:07 LT / 23:07Z):
CYQR 102309Z 31005KT 1/4SM R13/2000FT/N FZFG VV002 M08/M09 A2948 RMK FG8 SLP022
CYQR 102300Z 32005KT 1/4SM R13/1800V2200FT/N FZFG VV002 M09/M09 A2947 RMK FG8 SLP020
CYQR 102238Z 30008KT 1/2SM R13/3500VP6000FT/D FZFG OVC002 M08/M09 A2947 RMK FG2SF6 SLP020

Sources:

https://flightaware.com/live/flight/CA8059
https://globalnews.ca/news/1075677/plane-slips-off-runway-at-regina-airport/


Revision history:

Date/timeContributorUpdates
12-Jan-2014 09:05 harro Added
12-Jan-2014 09:07 harro Updated [Narrative]
13-Jan-2014 22:09 bizjets101 Updated [Aircraft type, Registration, Cn]

Corrections or additions? ... Edit this accident description